sensor_id;sensor_type;location;lat;lon;timestamp;P1;durP1;ratioP1;P2;durP2;ratioP2
5127;SDS011;2582;48.770;9.190;2023-02-28T00:00:06;4.57;;;4.13;;
5127;SDS011;2582;48.770;9.190;2023-02-28T00:02:35;5.30;;;4.03;;
5127;SDS011;2582;48.770;9.190;2023-02-28T00:05:04;7.20;;;3.87;;
5127;SDS011;2582;48.770;9.190;2023-02-28T00:07:31;4.20;;;3.70;;
5127;SDS011;2582;48.770;9.190;2023-02-28T00:09:57;4.33;;;3.93;;
5127;SDS011;2582;48.770;9.190;2023-02-28T00:12:23;5.93;;;3.70;;
5127;SDS011;2582;48.770;9.190;2023-02-28T00:14:49;6.00;;;4.00;;
5127;SDS011;2582;48.770;9.190;2023-02-28T00:17:15;4.50;;;3.77;;
5127;SDS011;2582;48.770;9.190;2023-02-28T00:19:42;4.27;;;3.87;;
5127;SDS011;2582;48.770;9.190;2023-02-28T00:22:08;4.53;;;4.13;;
5127;SDS011;2582;48.770;9.190;2023-02-28T00:24:34;3.70;;;3.40;;
5127;SDS011;2582;48.770;9.190;2023-02-28T00:26:59;4.20;;;3.60;;
5127;SDS011;2582;48.770;9.190;2023-02-28T00:29:25;3.70;;;3.23;;
5127;SDS011;2582;48.770;9.190;2023-02-28T00:31:50;4.23;;;3.83;;
5127;SDS011;2582;48.770;9.190;2023-02-28T00:34:16;6.50;;;4.20;;
5127;SDS011;2582;48.770;9.190;2023-02-28T00:36:41;3.47;;;3.13;;
5127;SDS011;2582;48.770;9.190;2023-02-28T00:39:10;8.40;;;4.40;;
5127;SDS011;2582;48.770;9.190;2023-02-28T00:41:36;4.13;;;3.67;;
5127;SDS011;2582;48.770;9.190;2023-02-28T00:44:01;5.97;;;3.37;;
5127;SDS011;2582;48.770;9.190;2023-02-28T00:46:27;5.07;;;3.73;;
5127;SDS011;2582;48.770;9.190;2023-02-28T00:48:52;4.40;;;4.00;;
5127;SDS011;2582;48.770;9.190;2023-02-28T00:51:18;8.23;;;3.90;;
5127;SDS011;2582;48.770;9.190;2023-02-28T00:53:43;4.40;;;3.40;;
5127;SDS011;2582;48.770;9.190;2023-02-28T00:56:09;5.80;;;3.60;;
5127;SDS011;2582;48.770;9.190;2023-02-28T00:58:35;4.50;;;4.10;;
5127;SDS011;2582;48.770;9.190;2023-02-28T01:01:00;5.17;;;4.50;;
5127;SDS011;2582;48.770;9.190;2023-02-28T01:03:26;5.50;;;4.30;;
5127;SDS011;2582;48.770;9.190;2023-02-28T01:05:51;4.70;;;3.60;;
5127;SDS011;2582;48.770;9.190;2023-02-28T01:08:18;4.90;;;4.17;;
5127;SDS011;2582;48.770;9.190;2023-02-28T01:10:43;4.70;;;3.60;;
5127;SDS011;2582;48.770;9.190;2023-02-28T01:13:09;3.83;;;3.53;;
5127;SDS011;2582;48.770;9.190;2023-02-28T01:15:35;3.83;;;3.43;;
5127;SDS011;2582;48.770;9.190;2023-02-28T01:18:01;3.90;;;3.60;;
5127;SDS011;2582;48.770;9.190;2023-02-28T01:20:26;3.63;;;2.80;;
5127;SDS011;2582;48.770;9.190;2023-02-28T01:22:52;3.50;;;3.13;;
5127;SDS011;2582;48.770;9.190;2023-02-28T01:25:18;4.40;;;4.00;;
5127;SDS011;2582;48.770;9.190;2023-02-28T01:27:43;3.87;;;3.57;;
5127;SDS011;2582;48.770;9.190;2023-02-28T01:30:09;5.00;;;4.20;;
5127;SDS011;2582;48.770;9.190;2023-02-28T01:32:35;5.80;;;3.90;;
5127;SDS011;2582;48.770;9.190;2023-02-28T01:35:01;5.30;;;3.60;;
5127;SDS011;2582;48.770;9.190;2023-02-28T01:37:27;4.00;;;3.60;;
5127;SDS011;2582;48.770;9.190;2023-02-28T01:39:53;4.60;;;4.20;;
5127;SDS011;2582;48.770;9.190;2023-02-28T01:42:18;5.20;;;4.67;;
5127;SDS011;2582;48.770;9.190;2023-02-28T01:47:22;5.50;;;4.10;;
5127;SDS011;2582;48.770;9.190;2023-02-28T01:49:49;4.50;;;3.80;;
5127;SDS011;2582;48.770;9.190;2023-02-28T01:52:16;4.90;;;4.40;;
5127;SDS011;2582;48.770;9.190;2023-02-28T01:54:48;4.80;;;3.90;;
5127;SDS011;2582;48.770;9.190;2023-02-28T01:57:21;4.33;;;3.97;;
5127;SDS011;2582;48.770;9.190;2023-02-28T01:59:52;5.93;;;3.50;;
5127;SDS011;2582;48.770;9.190;2023-02-28T02:02:21;4.40;;;3.60;;
5127;SDS011;2582;48.770;9.190;2023-02-28T02:04:58;4.57;;;4.03;;
5127;SDS011;2582;48.770;9.190;2023-02-28T02:07:26;4.80;;;4.40;;
5127;SDS011;2582;48.770;9.190;2023-02-28T02:09:59;4.27;;;3.70;;
5127;SDS011;2582;48.770;9.190;2023-02-28T02:12:36;4.73;;;4.33;;
5127;SDS011;2582;48.770;9.190;2023-02-28T02:15:29;4.87;;;4.37;;
5127;SDS011;2582;48.770;9.190;2023-02-28T02:35:11;10.10;;;3.83;;
5127;SDS011;2582;48.770;9.190;2023-02-28T02:43:29;4.70;;;4.30;;
5127;SDS011;2582;48.770;9.190;2023-02-28T02:46:06;4.50;;;4.10;;
5127;SDS011;2582;48.770;9.190;2023-02-28T02:48:37;5.07;;;4.57;;
5127;SDS011;2582;48.770;9.190;2023-02-28T02:51:07;5.70;;;4.90;;
5127;SDS011;2582;48.770;9.190;2023-02-28T02:53:50;4.80;;;4.40;;
5127;SDS011;2582;48.770;9.190;2023-02-28T02:56:23;4.93;;;4.50;;
5127;SDS011;2582;48.770;9.190;2023-02-28T02:58:53;7.00;;;5.80;;
5127;SDS011;2582;48.770;9.190;2023-02-28T03:01:24;4.90;;;4.33;;
5127;SDS011;2582;48.770;9.190;2023-02-28T03:03:54;5.93;;;5.40;;
5127;SDS011;2582;48.770;9.190;2023-02-28T03:06:22;6.50;;;4.97;;
5127;SDS011;2582;48.770;9.190;2023-02-28T03:08:48;6.83;;;5.83;;
5127;SDS011;2582;48.770;9.190;2023-02-28T03:11:14;6.43;;;5.37;;
5127;SDS011;2582;48.770;9.190;2023-02-28T03:16:29;6.10;;;5.03;;
5127;SDS011;2582;48.770;9.190;2023-02-28T03:19:18;6.83;;;5.13;;
5127;SDS011;2582;48.770;9.190;2023-02-28T03:27:03;7.10;;;6.40;;
5127;SDS011;2582;48.770;9.190;2023-02-28T03:29:35;5.93;;;5.13;;
5127;SDS011;2582;48.770;9.190;2023-02-28T03:32:08;14.23;;;6.23;;
5127;SDS011;2582;48.770;9.190;2023-02-28T03:34:59;6.13;;;5.60;;
5127;SDS011;2582;48.770;9.190;2023-02-28T03:37:31;8.10;;;6.50;;
5127;SDS011;2582;48.770;9.190;2023-02-28T03:40:10;6.77;;;5.97;;
5127;SDS011;2582;48.770;9.190;2023-02-28T03:42:48;7.47;;;6.40;;
5127;SDS011;2582;48.770;9.190;2023-02-28T03:45:20;8.50;;;6.67;;
5127;SDS011;2582;48.770;9.190;2023-02-28T03:50:27;7.33;;;6.53;;
5127;SDS011;2582;48.770;9.190;2023-02-28T03:53:11;9.73;;;7.30;;
5127;SDS011;2582;48.770;9.190;2023-02-28T03:55:39;6.50;;;5.73;;
5127;SDS011;2582;48.770;9.190;2023-02-28T03:58:12;6.60;;;6.00;;
5127;SDS011;2582;48.770;9.190;2023-02-28T04:00:49;7.40;;;6.40;;
5127;SDS011;2582;48.770;9.190;2023-02-28T04:03:20;10.47;;;7.97;;
5127;SDS011;2582;48.770;9.190;2023-02-28T04:05:50;7.90;;;6.73;;
5127;SDS011;2582;48.770;9.190;2023-02-28T04:08:17;11.40;;;6.73;;
5127;SDS011;2582;48.770;9.190;2023-02-28T04:10:43;6.97;;;5.93;;
5127;SDS011;2582;48.770;9.190;2023-02-28T04:13:14;7.10;;;6.40;;
5127;SDS011;2582;48.770;9.190;2023-02-28T04:15:40;6.93;;;6.23;;
5127;SDS011;2582;48.770;9.190;2023-02-28T04:18:06;7.17;;;6.30;;
5127;SDS011;2582;48.770;9.190;2023-02-28T04:20:31;8.90;;;7.00;;
5127;SDS011;2582;48.770;9.190;2023-02-28T04:22:57;9.53;;;5.57;;
5127;SDS011;2582;48.770;9.190;2023-02-28T04:25:22;6.90;;;6.03;;
5127;SDS011;2582;48.770;9.190;2023-02-28T04:27:48;7.20;;;5.80;;
5127;SDS011;2582;48.770;9.190;2023-02-28T04:30:13;6.70;;;6.13;;
5127;SDS011;2582;48.770;9.190;2023-02-28T04:32:39;6.83;;;6.17;;
5127;SDS011;2582;48.770;9.190;2023-02-28T04:35:05;6.10;;;5.50;;
5127;SDS011;2582;48.770;9.190;2023-02-28T04:37:30;9.57;;;6.50;;
5127;SDS011;2582;48.770;9.190;2023-02-28T04:39:59;6.13;;;5.53;;
5127;SDS011;2582;48.770;9.190;2023-02-28T04:42:25;7.60;;;6.90;;
5127;SDS011;2582;48.770;9.190;2023-02-28T04:44:51;8.53;;;6.20;;
5127;SDS011;2582;48.770;9.190;2023-02-28T04:47:17;7.60;;;5.80;;
5127;SDS011;2582;48.770;9.190;2023-02-28T04:49:42;7.03;;;6.40;;
5127;SDS011;2582;48.770;9.190;2023-02-28T04:52:08;7.13;;;6.37;;
5127;SDS011;2582;48.770;9.190;2023-02-28T04:54:35;6.60;;;6.00;;
5127;SDS011;2582;48.770;9.190;2023-02-28T04:57:00;6.90;;;6.27;;
5127;SDS011;2582;48.770;9.190;2023-02-28T04:59:26;7.53;;;5.97;;
5127;SDS011;2582;48.770;9.190;2023-02-28T05:01:52;7.80;;;6.70;;
5127;SDS011;2582;48.770;9.190;2023-02-28T05:04:17;7.13;;;5.83;;
5127;SDS011;2582;48.770;9.190;2023-02-28T05:06:43;8.00;;;6.63;;
5127;SDS011;2582;48.770;9.190;2023-02-28T05:09:09;7.17;;;6.50;;
5127;SDS011;2582;48.770;9.190;2023-02-28T05:11:38;8.30;;;7.30;;
5127;SDS011;2582;48.770;9.190;2023-02-28T05:14:05;5.90;;;5.27;;
5127;SDS011;2582;48.770;9.190;2023-02-28T05:16:34;7.53;;;6.67;;
5127;SDS011;2582;48.770;9.190;2023-02-28T05:18:59;7.23;;;6.53;;
5127;SDS011;2582;48.770;9.190;2023-02-28T05:21:26;9.10;;;6.97;;
5127;SDS011;2582;48.770;9.190;2023-02-28T05:23:52;8.83;;;6.83;;
5127;SDS011;2582;48.770;9.190;2023-02-28T05:26:18;8.20;;;7.07;;
5127;SDS011;2582;48.770;9.190;2023-02-28T05:28:44;9.50;;;6.63;;
5127;SDS011;2582;48.770;9.190;2023-02-28T05:31:10;9.70;;;8.07;;
5127;SDS011;2582;48.770;9.190;2023-02-28T05:33:36;7.70;;;7.00;;
5127;SDS011;2582;48.770;9.190;2023-02-28T05:36:02;6.67;;;6.07;;
5127;SDS011;2582;48.770;9.190;2023-02-28T05:38:28;8.97;;;6.50;;
5127;SDS011;2582;48.770;9.190;2023-02-28T05:40:53;10.07;;;7.83;;
5127;SDS011;2582;48.770;9.190;2023-02-28T05:43:19;8.50;;;7.00;;
5127;SDS011;2582;48.770;9.190;2023-02-28T05:45:44;7.90;;;6.70;;
5127;SDS011;2582;48.770;9.190;2023-02-28T05:48:10;8.00;;;7.30;;
5127;SDS011;2582;48.770;9.190;2023-02-28T05:50:35;8.67;;;7.37;;
5127;SDS011;2582;48.770;9.190;2023-02-28T05:53:01;7.97;;;7.17;;
5127;SDS011;2582;48.770;9.190;2023-02-28T05:55:28;7.83;;;7.03;;
5127;SDS011;2582;48.770;9.190;2023-02-28T05:57:54;8.07;;;6.60;;
5127;SDS011;2582;48.770;9.190;2023-02-28T06:00:20;7.60;;;6.90;;
5127;SDS011;2582;48.770;9.190;2023-02-28T06:02:46;7.70;;;6.90;;
5127;SDS011;2582;48.770;9.190;2023-02-28T06:05:16;10.20;;;8.50;;
5127;SDS011;2582;48.770;9.190;2023-02-28T06:07:43;8.97;;;8.00;;
5127;SDS011;2582;48.770;9.190;2023-02-28T06:10:10;9.40;;;7.73;;
5127;SDS011;2582;48.770;9.190;2023-02-28T06:12:37;8.53;;;7.63;;
5127;SDS011;2582;48.770;9.190;2023-02-28T06:15:03;9.90;;;7.87;;
5127;SDS011;2582;48.770;9.190;2023-02-28T06:17:29;7.97;;;7.27;;
5127;SDS011;2582;48.770;9.190;2023-02-28T06:19:54;7.83;;;7.07;;
5127;SDS011;2582;48.770;9.190;2023-02-28T06:22:20;10.40;;;7.20;;
5127;SDS011;2582;48.770;9.190;2023-02-28T06:24:46;8.63;;;7.43;;
5127;SDS011;2582;48.770;9.190;2023-02-28T06:27:11;11.17;;;8.00;;
5127;SDS011;2582;48.770;9.190;2023-02-28T06:29:37;9.83;;;7.60;;
5127;SDS011;2582;48.770;9.190;2023-02-28T06:32:04;10.47;;;7.70;;
5127;SDS011;2582;48.770;9.190;2023-02-28T06:34:30;8.80;;;7.93;;
5127;SDS011;2582;48.770;9.190;2023-02-28T06:36:56;11.60;;;8.47;;
5127;SDS011;2582;48.770;9.190;2023-02-28T06:39:27;12.40;;;9.00;;
5127;SDS011;2582;48.770;9.190;2023-02-28T06:41:55;14.90;;;11.90;;
5127;SDS011;2582;48.770;9.190;2023-02-28T06:44:21;12.40;;;8.17;;
5127;SDS011;2582;48.770;9.190;2023-02-28T06:46:48;11.07;;;8.07;;
5127;SDS011;2582;48.770;9.190;2023-02-28T06:49:14;9.53;;;7.37;;
5127;SDS011;2582;48.770;9.190;2023-02-28T06:51:41;9.17;;;8.00;;
5127;SDS011;2582;48.770;9.190;2023-02-28T06:54:11;9.17;;;8.00;;
5127;SDS011;2582;48.770;9.190;2023-02-28T06:56:38;9.43;;;7.67;;
5127;SDS011;2582;48.770;9.190;2023-02-28T06:59:04;10.70;;;8.43;;
5127;SDS011;2582;48.770;9.190;2023-02-28T07:01:30;11.80;;;9.10;;
5127;SDS011;2582;48.770;9.190;2023-02-28T07:03:57;10.20;;;7.67;;
5127;SDS011;2582;48.770;9.190;2023-02-28T07:06:24;10.13;;;8.30;;
5127;SDS011;2582;48.770;9.190;2023-02-28T07:08:51;9.50;;;8.40;;
5127;SDS011;2582;48.770;9.190;2023-02-28T07:11:19;11.77;;;8.17;;
5127;SDS011;2582;48.770;9.190;2023-02-28T07:13:47;12.70;;;9.33;;
5127;SDS011;2582;48.770;9.190;2023-02-28T07:16:13;12.50;;;9.30;;
5127;SDS011;2582;48.770;9.190;2023-02-28T07:18:39;11.33;;;9.83;;
5127;SDS011;2582;48.770;9.190;2023-02-28T07:21:06;13.10;;;10.57;;
5127;SDS011;2582;48.770;9.190;2023-02-28T07:23:32;10.47;;;9.20;;
5127;SDS011;2582;48.770;9.190;2023-02-28T07:25:58;13.63;;;9.33;;
5127;SDS011;2582;48.770;9.190;2023-02-28T07:28:24;13.27;;;9.80;;
5127;SDS011;2582;48.770;9.190;2023-02-28T07:30:49;12.83;;;10.33;;
5127;SDS011;2582;48.770;9.190;2023-02-28T07:33:15;15.00;;;9.53;;
5127;SDS011;2582;48.770;9.190;2023-02-28T07:35:41;13.03;;;9.43;;
5127;SDS011;2582;48.770;9.190;2023-02-28T07:38:07;13.10;;;9.33;;
5127;SDS011;2582;48.770;9.190;2023-02-28T07:40:33;11.20;;;9.30;;
5127;SDS011;2582;48.770;9.190;2023-02-28T07:43:00;11.70;;;9.83;;
5127;SDS011;2582;48.770;9.190;2023-02-28T07:45:26;11.80;;;10.07;;
5127;SDS011;2582;48.770;9.190;2023-02-28T07:47:53;12.37;;;10.20;;
5127;SDS011;2582;48.770;9.190;2023-02-28T07:50:19;11.20;;;10.00;;
5127;SDS011;2582;48.770;9.190;2023-02-28T07:52:45;12.10;;;9.37;;
5127;SDS011;2582;48.770;9.190;2023-02-28T07:55:10;9.80;;;8.80;;
5127;SDS011;2582;48.770;9.190;2023-02-28T07:57:36;11.50;;;10.03;;
5127;SDS011;2582;48.770;9.190;2023-02-28T08:00:03;10.90;;;9.40;;
5127;SDS011;2582;48.770;9.190;2023-02-28T08:02:30;10.67;;;9.57;;
5127;SDS011;2582;48.770;9.190;2023-02-28T08:04:55;11.27;;;9.80;;
5127;SDS011;2582;48.770;9.190;2023-02-28T08:07:21;11.23;;;10.13;;
5127;SDS011;2582;48.770;9.190;2023-02-28T08:09:47;11.77;;;10.57;;
5127;SDS011;2582;48.770;9.190;2023-02-28T08:12:12;11.33;;;10.13;;
5127;SDS011;2582;48.770;9.190;2023-02-28T08:14:38;10.90;;;9.67;;
5127;SDS011;2582;48.770;9.190;2023-02-28T08:17:04;11.70;;;10.33;;
5127;SDS011;2582;48.770;9.190;2023-02-28T08:19:30;11.83;;;9.67;;
5127;SDS011;2582;48.770;9.190;2023-02-28T08:21:56;11.00;;;9.90;;
5127;SDS011;2582;48.770;9.190;2023-02-28T08:24:22;11.70;;;10.50;;
5127;SDS011;2582;48.770;9.190;2023-02-28T08:26:49;11.00;;;9.30;;
5127;SDS011;2582;48.770;9.190;2023-02-28T08:29:15;11.90;;;10.10;;
5127;SDS011;2582;48.770;9.190;2023-02-28T08:31:40;13.97;;;11.40;;
5127;SDS011;2582;48.770;9.190;2023-02-28T08:34:09;11.60;;;10.33;;
5127;SDS011;2582;48.770;9.190;2023-02-28T08:36:36;10.53;;;9.43;;
5127;SDS011;2582;48.770;9.190;2023-02-28T08:39:02;14.40;;;11.13;;
5127;SDS011;2582;48.770;9.190;2023-02-28T08:41:28;14.13;;;10.70;;
5127;SDS011;2582;48.770;9.190;2023-02-28T08:43:54;11.93;;;9.90;;
5127;SDS011;2582;48.770;9.190;2023-02-28T08:46:20;11.87;;;9.23;;
5127;SDS011;2582;48.770;9.190;2023-02-28T08:48:46;11.23;;;9.80;;
5127;SDS011;2582;48.770;9.190;2023-02-28T08:51:12;11.27;;;9.93;;
5127;SDS011;2582;48.770;9.190;2023-02-28T08:53:43;13.90;;;11.40;;
5127;SDS011;2582;48.770;9.190;2023-02-28T08:56:10;11.60;;;9.60;;
5127;SDS011;2582;48.770;9.190;2023-02-28T08:58:39;12.93;;;10.70;;
5127;SDS011;2582;48.770;9.190;2023-02-28T09:01:47;11.87;;;10.53;;
5127;SDS011;2582;48.770;9.190;2023-02-28T09:03:54;13.20;;;10.00;;
5127;SDS011;2582;48.770;9.190;2023-02-28T09:06:21;10.77;;;9.63;;
5127;SDS011;2582;48.770;9.190;2023-02-28T09:08:48;11.40;;;10.07;;
5127;SDS011;2582;48.770;9.190;2023-02-28T09:11:14;11.50;;;10.40;;
5127;SDS011;2582;48.770;9.190;2023-02-28T09:13:40;12.40;;;10.40;;
5127;SDS011;2582;48.770;9.190;2023-02-28T09:16:06;17.10;;;10.73;;
5127;SDS011;2582;48.770;9.190;2023-02-28T09:18:34;12.33;;;11.13;;
5127;SDS011;2582;48.770;9.190;2023-02-28T09:21:04;11.00;;;9.90;;
5127;SDS011;2582;48.770;9.190;2023-02-28T09:23:30;10.40;;;9.40;;
5127;SDS011;2582;48.770;9.190;2023-02-28T09:25:55;13.50;;;11.10;;
5127;SDS011;2582;48.770;9.190;2023-02-28T09:28:21;14.20;;;11.30;;
5127;SDS011;2582;48.770;9.190;2023-02-28T09:30:48;15.33;;;11.20;;
5127;SDS011;2582;48.770;9.190;2023-02-28T09:33:17;15.40;;;11.43;;
5127;SDS011;2582;48.770;9.190;2023-02-28T09:35:45;12.20;;;10.67;;
5127;SDS011;2582;48.770;9.190;2023-02-28T09:38:11;13.33;;;10.73;;
5127;SDS011;2582;48.770;9.190;2023-02-28T09:40:38;13.00;;;11.27;;
5127;SDS011;2582;48.770;9.190;2023-02-28T09:43:12;14.00;;;11.70;;
5127;SDS011;2582;48.770;9.190;2023-02-28T09:45:41;13.10;;;11.63;;
5127;SDS011;2582;48.770;9.190;2023-02-28T09:48:18;14.67;;;10.50;;
5127;SDS011;2582;48.770;9.190;2023-02-28T09:50:49;11.40;;;10.30;;
5127;SDS011;2582;48.770;9.190;2023-02-28T09:53:27;12.40;;;11.10;;
5127;SDS011;2582;48.770;9.190;2023-02-28T09:56:15;16.53;;;13.90;;
5127;SDS011;2582;48.770;9.190;2023-02-28T09:58:54;12.27;;;10.03;;
5127;SDS011;2582;48.770;9.190;2023-02-28T10:02:21;11.23;;;9.90;;
5127;SDS011;2582;48.770;9.190;2023-02-28T10:04:40;13.07;;;10.77;;
5127;SDS011;2582;48.770;9.190;2023-02-28T10:10:19;11.10;;;10.00;;
5127;SDS011;2582;48.770;9.190;2023-02-28T10:12:49;14.90;;;10.47;;
5127;SDS011;2582;48.770;9.190;2023-02-28T10:15:18;13.90;;;11.00;;
5127;SDS011;2582;48.770;9.190;2023-02-28T10:17:47;13.30;;;11.60;;
5127;SDS011;2582;48.770;9.190;2023-02-28T10:20:19;13.40;;;10.70;;
5127;SDS011;2582;48.770;9.190;2023-02-28T10:22:52;15.93;;;10.80;;
5127;SDS011;2582;48.770;9.190;2023-02-28T10:25:32;15.53;;;11.50;;
5127;SDS011;2582;48.770;9.190;2023-02-28T10:28:10;11.70;;;10.23;;
5127;SDS011;2582;48.770;9.190;2023-02-28T10:30:39;13.47;;;12.07;;
5127;SDS011;2582;48.770;9.190;2023-02-28T10:33:10;12.83;;;11.37;;
5127;SDS011;2582;48.770;9.190;2023-02-28T10:35:45;11.43;;;10.23;;
5127;SDS011;2582;48.770;9.190;2023-02-28T10:38:14;12.40;;;11.00;;
5127;SDS011;2582;48.770;9.190;2023-02-28T10:40:42;13.73;;;11.30;;
5127;SDS011;2582;48.770;9.190;2023-02-28T10:45:39;11.63;;;10.23;;
5127;SDS011;2582;48.770;9.190;2023-02-28T10:55:40;12.00;;;9.80;;
5127;SDS011;2582;48.770;9.190;2023-02-28T10:58:28;11.83;;;10.50;;
5127;SDS011;2582;48.770;9.190;2023-02-28T11:01:15;13.20;;;11.90;;
5127;SDS011;2582;48.770;9.190;2023-02-28T11:04:03;12.20;;;10.90;;
5127;SDS011;2582;48.770;9.190;2023-02-28T11:06:42;14.30;;;11.30;;
5127;SDS011;2582;48.770;9.190;2023-02-28T11:09:22;12.47;;;11.17;;
5127;SDS011;2582;48.770;9.190;2023-02-28T11:11:51;12.27;;;11.07;;
5127;SDS011;2582;48.770;9.190;2023-02-28T11:14:24;12.27;;;11.07;;
5127;SDS011;2582;48.770;9.190;2023-02-28T11:16:52;14.17;;;11.50;;
5127;SDS011;2582;48.770;9.190;2023-02-28T11:19:20;12.23;;;10.97;;
5127;SDS011;2582;48.770;9.190;2023-02-28T11:21:55;12.20;;;10.77;;
5127;SDS011;2582;48.770;9.190;2023-02-28T11:24:28;12.20;;;11.00;;
5127;SDS011;2582;48.770;9.190;2023-02-28T11:29:56;14.30;;;11.70;;
5127;SDS011;2582;48.770;9.190;2023-02-28T11:32:26;12.70;;;11.40;;
5127;SDS011;2582;48.770;9.190;2023-02-28T11:35:14;11.10;;;10.03;;
5127;SDS011;2582;48.770;9.190;2023-02-28T11:37:41;12.77;;;11.07;;
5127;SDS011;2582;48.770;9.190;2023-02-28T11:40:22;11.00;;;9.90;;
5127;SDS011;2582;48.770;9.190;2023-02-28T11:45:37;13.33;;;10.80;;
5127;SDS011;2582;48.770;9.190;2023-02-28T11:48:23;14.93;;;12.17;;
5127;SDS011;2582;48.770;9.190;2023-02-28T11:51:29;14.03;;;11.70;;
5127;SDS011;2582;48.770;9.190;2023-02-28T11:54:19;12.90;;;10.93;;
5127;SDS011;2582;48.770;9.190;2023-02-28T11:57:09;12.53;;;11.37;;
5127;SDS011;2582;48.770;9.190;2023-02-28T12:05:12;14.27;;;12.60;;
5127;SDS011;2582;48.770;9.190;2023-02-28T12:18:16;11.97;;;10.77;;
5127;SDS011;2582;48.770;9.190;2023-02-28T12:21:18;10.67;;;9.67;;
5127;SDS011;2582;48.770;9.190;2023-02-28T12:26:39;11.77;;;10.50;;
5127;SDS011;2582;48.770;9.190;2023-02-28T12:29:22;21.23;;;18.43;;
5127;SDS011;2582;48.770;9.190;2023-02-28T12:31:53;10.60;;;9.60;;
5127;SDS011;2582;48.770;9.190;2023-02-28T12:34:38;12.60;;;11.30;;
5127;SDS011;2582;48.770;9.190;2023-02-28T12:37:10;16.50;;;12.80;;
5127;SDS011;2582;48.770;9.190;2023-02-28T12:40:04;15.50;;;12.70;;
5127;SDS011;2582;48.770;9.190;2023-02-28T12:42:41;13.70;;;11.20;;
5127;SDS011;2582;48.770;9.190;2023-02-28T12:45:18;13.90;;;12.60;;
5127;SDS011;2582;48.770;9.190;2023-02-28T12:47:48;12.57;;;11.27;;
5127;SDS011;2582;48.770;9.190;2023-02-28T12:50:23;11.00;;;9.90;;
5127;SDS011;2582;48.770;9.190;2023-02-28T12:53:09;12.00;;;10.90;;
5127;SDS011;2582;48.770;9.190;2023-02-28T12:56:02;13.87;;;12.40;;
5127;SDS011;2582;48.770;9.190;2023-02-28T12:58:54;12.00;;;10.90;;
5127;SDS011;2582;48.770;9.190;2023-02-28T13:01:42;19.00;;;17.20;;
5127;SDS011;2582;48.770;9.190;2023-02-28T13:10:05;11.60;;;10.50;;
5127;SDS011;2582;48.770;9.190;2023-02-28T13:12:32;13.30;;;12.00;;
5127;SDS011;2582;48.770;9.190;2023-02-28T13:17:37;14.80;;;13.30;;
5127;SDS011;2582;48.770;9.190;2023-02-28T13:20:14;13.50;;;11.10;;
5127;SDS011;2582;48.770;9.190;2023-02-28T13:22:43;16.13;;;13.97;;
5127;SDS011;2582;48.770;9.190;2023-02-28T13:27:56;14.87;;;13.37;;
5127;SDS011;2582;48.770;9.190;2023-02-28T13:33:31;11.00;;;10.10;;
5127;SDS011;2582;48.770;9.190;2023-02-28T13:38:36;12.00;;;11.00;;
5127;SDS011;2582;48.770;9.190;2023-02-28T13:44:14;10.73;;;9.73;;
5127;SDS011;2582;48.770;9.190;2023-02-28T13:51:51;11.40;;;10.30;;
5127;SDS011;2582;48.770;9.190;2023-02-28T14:03:14;13.60;;;12.30;;
5127;SDS011;2582;48.770;9.190;2023-02-28T14:05:44;11.10;;;10.00;;
5127;SDS011;2582;48.770;9.190;2023-02-28T14:08:14;13.63;;;10.57;;
5127;SDS011;2582;48.770;9.190;2023-02-28T14:10:49;10.33;;;9.43;;
5127;SDS011;2582;48.770;9.190;2023-02-28T14:16:13;11.30;;;10.30;;
5127;SDS011;2582;48.770;9.190;2023-02-28T14:18:47;11.73;;;10.63;;
5127;SDS011;2582;48.770;9.190;2023-02-28T14:21:20;10.60;;;9.70;;
5127;SDS011;2582;48.770;9.190;2023-02-28T14:26:26;10.83;;;9.83;;
5127;SDS011;2582;48.770;9.190;2023-02-28T14:31:45;12.73;;;11.30;;
5127;SDS011;2582;48.770;9.190;2023-02-28T14:37:10;11.83;;;10.63;;
5127;SDS011;2582;48.770;9.190;2023-02-28T14:39:41;13.03;;;10.67;;
5127;SDS011;2582;48.770;9.190;2023-02-28T14:42:25;11.13;;;10.00;;
5127;SDS011;2582;48.770;9.190;2023-02-28T14:44:57;14.37;;;11.57;;
5127;SDS011;2582;48.770;9.190;2023-02-28T14:47:23;11.67;;;10.50;;
5127;SDS011;2582;48.770;9.190;2023-02-28T14:49:53;12.03;;;10.70;;
5127;SDS011;2582;48.770;9.190;2023-02-28T14:52:23;13.30;;;10.83;;
5127;SDS011;2582;48.770;9.190;2023-02-28T14:54:58;11.33;;;10.23;;
5127;SDS011;2582;48.770;9.190;2023-02-28T14:57:30;9.77;;;8.83;;
5127;SDS011;2582;48.770;9.190;2023-02-28T14:59:58;10.83;;;9.73;;
5127;SDS011;2582;48.770;9.190;2023-02-28T15:02:25;11.47;;;10.30;;
5127;SDS011;2582;48.770;9.190;2023-02-28T15:04:55;11.13;;;10.00;;
5127;SDS011;2582;48.770;9.190;2023-02-28T15:07:26;11.87;;;9.77;;
5127;SDS011;2582;48.770;9.190;2023-02-28T15:12:54;11.47;;;9.87;;
5127;SDS011;2582;48.770;9.190;2023-02-28T15:15:21;11.70;;;10.57;;
5127;SDS011;2582;48.770;9.190;2023-02-28T15:17:51;10.17;;;9.17;;
5127;SDS011;2582;48.770;9.190;2023-02-28T15:20:21;11.07;;;9.73;;
5127;SDS011;2582;48.770;9.190;2023-02-28T15:22:49;11.30;;;10.07;;
5127;SDS011;2582;48.770;9.190;2023-02-28T15:25:18;14.73;;;10.97;;
5127;SDS011;2582;48.770;9.190;2023-02-28T15:27:50;12.00;;;10.80;;
5127;SDS011;2582;48.770;9.190;2023-02-28T15:30:20;11.60;;;10.40;;
5127;SDS011;2582;48.770;9.190;2023-02-28T15:33:07;12.93;;;10.60;;
5127;SDS011;2582;48.770;9.190;2023-02-28T15:35:36;17.93;;;10.17;;
5127;SDS011;2582;48.770;9.190;2023-02-28T15:38:04;26.93;;;13.03;;
5127;SDS011;2582;48.770;9.190;2023-02-28T15:40:52;12.80;;;11.30;;
5127;SDS011;2582;48.770;9.190;2023-02-28T15:45:51;13.40;;;10.23;;
5127;SDS011;2582;48.770;9.190;2023-02-28T15:48:23;12.40;;;11.20;;
5127;SDS011;2582;48.770;9.190;2023-02-28T15:50:56;11.57;;;10.33;;
5127;SDS011;2582;48.770;9.190;2023-02-28T15:53:30;12.53;;;11.33;;
5127;SDS011;2582;48.770;9.190;2023-02-28T15:55:59;13.17;;;11.83;;
5127;SDS011;2582;48.770;9.190;2023-02-28T15:58:30;12.00;;;10.70;;
5127;SDS011;2582;48.770;9.190;2023-02-28T16:01:40;12.50;;;11.20;;
5127;SDS011;2582;48.770;9.190;2023-02-28T16:03:56;11.77;;;10.50;;
5127;SDS011;2582;48.770;9.190;2023-02-28T16:06:41;12.27;;;11.07;;
5127;SDS011;2582;48.770;9.190;2023-02-28T16:09:11;13.27;;;11.57;;
5127;SDS011;2582;48.770;9.190;2023-02-28T16:11:40;12.17;;;10.87;;
5127;SDS011;2582;48.770;9.190;2023-02-28T16:14:23;12.53;;;11.10;;
5127;SDS011;2582;48.770;9.190;2023-02-28T16:16:53;12.43;;;11.23;;
5127;SDS011;2582;48.770;9.190;2023-02-28T16:19:20;15.00;;;12.00;;
5127;SDS011;2582;48.770;9.190;2023-02-28T16:21:46;12.20;;;11.10;;
5127;SDS011;2582;48.770;9.190;2023-02-28T16:24:12;12.07;;;10.87;;
5127;SDS011;2582;48.770;9.190;2023-02-28T16:26:41;15.53;;;12.00;;
5127;SDS011;2582;48.770;9.190;2023-02-28T16:29:12;12.37;;;10.43;;
5127;SDS011;2582;48.770;9.190;2023-02-28T16:31:43;12.50;;;11.30;;
5127;SDS011;2582;48.770;9.190;2023-02-28T16:34:08;13.53;;;11.67;;
5127;SDS011;2582;48.770;9.190;2023-02-28T16:36:34;12.20;;;10.50;;
5127;SDS011;2582;48.770;9.190;2023-02-28T16:38:59;13.23;;;11.63;;
5127;SDS011;2582;48.770;9.190;2023-02-28T16:41:27;13.53;;;12.30;;
5127;SDS011;2582;48.770;9.190;2023-02-28T16:43:54;13.77;;;12.33;;
5127;SDS011;2582;48.770;9.190;2023-02-28T16:46:26;11.93;;;10.60;;
5127;SDS011;2582;48.770;9.190;2023-02-28T16:48:55;14.10;;;11.93;;
5127;SDS011;2582;48.770;9.190;2023-02-28T16:51:21;12.10;;;10.47;;
5127;SDS011;2582;48.770;9.190;2023-02-28T16:53:47;13.40;;;11.70;;
5127;SDS011;2582;48.770;9.190;2023-02-28T16:56:17;12.07;;;10.80;;
5127;SDS011;2582;48.770;9.190;2023-02-28T16:58:44;12.77;;;11.50;;
5127;SDS011;2582;48.770;9.190;2023-02-28T17:01:10;13.57;;;11.80;;
5127;SDS011;2582;48.770;9.190;2023-02-28T17:03:36;13.33;;;11.60;;
5127;SDS011;2582;48.770;9.190;2023-02-28T17:06:02;14.50;;;13.00;;
5127;SDS011;2582;48.770;9.190;2023-02-28T17:08:29;13.20;;;11.90;;
5127;SDS011;2582;48.770;9.190;2023-02-28T17:10:56;12.80;;;11.43;;
5127;SDS011;2582;48.770;9.190;2023-02-28T17:13:23;13.10;;;11.90;;
5127;SDS011;2582;48.770;9.190;2023-02-28T17:15:48;13.30;;;11.90;;
5127;SDS011;2582;48.770;9.190;2023-02-28T17:18:14;13.80;;;12.40;;
5127;SDS011;2582;48.770;9.190;2023-02-28T17:20:43;14.63;;;12.80;;